Norwegian Star — C6FR3 — position and weather

sailwx.info

Track history (hours):
 
Tides and Currents Weather Stations Pressure Air Temp Water Temp Dewpoint Dewpoint Depression Visibility Wind Speed Wind Dir Waves Ship Positions

Norwegian Star

Operator: Norwegian Cruise Line

Last reported at 2016-Jun-24 23:33 UTC. Time now 2016-Jun-25 00:02 UTC.
Position N 56°36' E 011°56'.

Type: Passenger vessel. MMSI: 311082000.

Date/timePositionNaut miles runAvg speedWind from/ knotsBaromVisibWave heightAir tempDewpointWater temp
2016-Jun-24 23:33N 56°36' E 011°56'1515.1
2016-Jun-24 22:33N 56°51' E 011°50'1515.3
2016-Jun-24 21:33N 57°05' E 011°40'1616.0
2016-Jun-24 20:34N 57°20' E 011°29'1615.6
2016-Jun-24 19:34N 57°33' E 011°13'1615.7
2016-Jun-24 18:33N 57°44' E 010°53'1515.1
2016-Jun-24 17:33N 57°48' E 010°25'1615.5
2016-Jun-24 16:33N 57°50' E 009°56'9715.5
2016-Jun-24 10:18N 57°42' E 006°56'1215.5
2016-Jun-24 09:32N 57°44' E 006°34'1615.7
2016-Jun-24 08:33N 57°54' E 006°10'1515.5
2016-Jun-24 07:33N 58°03' E 005°48'1514.9
2016-Jun-24 06:33N 58°13' E 005°27'3115.3
2016-Jun-24 04:31N 58°35' E 004°45'1815.6
2016-Jun-24 03:22N 58°48' E 004°21'211 7.1
2016-Jun-22 21:34N 62°18' E 004°59'46716.4
2016-Jun-21 17:00N 66°30' W 010°12'1919.4 210 / 331007.0 0.510.0 8.0
2016-Jun-21 16:00N 66°48' W 010°30'372 7.8 200 / 301007.0 0.510.0 8.0
2016-Jun-19 16:00N 70°48' W 023°36'80116.8 340 / 151009.0 0.5 3.7 2.6
2016-Jun-17 16:20N 68°04' E 013°35'52 2.9
2016-Jun-16 22:16N 67°13' E 013°01'7 9.3
2016-Jun-16 21:33N 67°13' E 013°18'9 9.3
2016-Jun-16 20:33N 67°13' E 013°42'9 9.1
2016-Jun-16 19:34N 67°08' E 014°02'1212.0
2016-Jun-16 18:34N 66°59' E 013°42'14 6.4
2016-Jun-16 16:18N 66°48' E 013°20'18 3.8
2016-Jun-16 11:32N 66°32' E 012°57'1211.8
2016-Jun-16 10:33N 66°20' E 012°53'1212.2
2016-Jun-16 09:33N 66°15' E 012°25'1312.3
2016-Jun-16 08:30N 66°15' E 011°53'3212.8
2016-Jun-16 06:00N 65°54' E 010°54'11615.5 010 / 261007.0 5.4 2.510.0 6.0 9.0
2016-Jun-15 22:31N 64°04' E 009°28'1515.2
2016-Jun-15 21:33N 63°51' E 009°16'1413.5
2016-Jun-15 20:32N 63°37' E 009°20'1312.3
2016-Jun-15 19:30N 63°36' E 009°48'1414.8
2016-Jun-15 18:34N 63°29' E 010°14'5 4.7
2016-Jun-15 17:31N 63°27' E 010°24'0 0.0
2016-Jun-15 16:31N 63°27' E 010°24'0 0.0
2016-Jun-15 15:31N 63°27' E 010°24'0 0.0
2016-Jun-15 14:31N 63°27' E 010°24'0 0.0
2016-Jun-15 13:31N 63°27' E 010°24'0 0.0
2016-Jun-15 12:31N 63°27' E 010°24'0 0.0
2016-Jun-15 11:31N 63°27' E 010°24'0 0.0
2016-Jun-15 10:31N 63°27' E 010°24'0 0.0
2016-Jun-15 09:31N 63°27' E 010°24'0 0.0
2016-Jun-15 08:31N 63°27' E 010°24'0 0.0
2016-Jun-15 07:33N 63°27' E 010°24'5 5.5
2016-Jun-15 06:33N 63°28' E 010°12'1212.5
2016-Jun-15 05:34N 63°35' E 009°49'1010.0
2016-Jun-15 04:33N 63°35' E 009°27'  
Track history (hours):
 
Tides and Currents Weather Stations Pressure Air Temp Water Temp Dewpoint Dewpoint Depression Visibility Wind Speed Wind Dir Waves Ship Positions

Norwegian Star

Operator: Norwegian Cruise Line

Last reported at 2016-Jun-24 23:33 UTC. Time now 2016-Jun-25 00:02 UTC.
Position N 56°36' E 011°56'.

Type: Passenger vessel. MMSI: 311082000.

Date/timePositionNaut miles runAvg speedWind from/ knotsBaromVisibWave heightAir tempDewpointWater temp
2016-Jun-24 23:33N 56°36' E 011°56'1515.1
2016-Jun-24 22:33N 56°51' E 011°50'1515.3
2016-Jun-24 21:33N 57°05' E 011°40'1616.0
2016-Jun-24 20:34N 57°20' E 011°29'1615.6
2016-Jun-24 19:34N 57°33' E 011°13'1615.7
2016-Jun-24 18:33N 57°44' E 010°53'1515.1
2016-Jun-24 17:33N 57°48' E 010°25'1615.5
2016-Jun-24 16:33N 57°50' E 009°56'9715.5
2016-Jun-24 10:18N 57°42' E 006°56'1215.5
2016-Jun-24 09:32N 57°44' E 006°34'1615.7
2016-Jun-24 08:33N 57°54' E 006°10'1515.5
2016-Jun-24 07:33N 58°03' E 005°48'1514.9
2016-Jun-24 06:33N 58°13' E 005°27'3115.3
2016-Jun-24 04:31N 58°35' E 004°45'1815.6
2016-Jun-24 03:22N 58°48' E 004°21'211 7.1
2016-Jun-22 21:34N 62°18' E 004°59'46716.4
2016-Jun-21 17:00N 66°30' W 010°12'1919.4 210 / 331007.0 0.510.0 8.0
2016-Jun-21 16:00N 66°48' W 010°30'372 7.8 200 / 301007.0 0.510.0 8.0
2016-Jun-19 16:00N 70°48' W 023°36'80116.8 340 / 151009.0 0.5 3.7 2.6
2016-Jun-17 16:20N 68°04' E 013°35'52 2.9
2016-Jun-16 22:16N 67°13' E 013°01'7 9.3
2016-Jun-16 21:33N 67°13' E 013°18'9 9.3
2016-Jun-16 20:33N 67°13' E 013°42'9 9.1
2016-Jun-16 19:34N 67°08' E 014°02'1212.0
2016-Jun-16 18:34N 66°59' E 013°42'14 6.4
2016-Jun-16 16:18N 66°48' E 013°20'18 3.8
2016-Jun-16 11:32N 66°32' E 012°57'1211.8
2016-Jun-16 10:33N 66°20' E 012°53'1212.2
2016-Jun-16 09:33N 66°15' E 012°25'1312.3
2016-Jun-16 08:30N 66°15' E 011°53'3212.8
2016-Jun-16 06:00N 65°54' E 010°54'11615.5 010 / 261007.0 5.4 2.510.0 6.0 9.0
2016-Jun-15 22:31N 64°04' E 009°28'1515.2
2016-Jun-15 21:33N 63°51' E 009°16'1413.5
2016-Jun-15 20:32N 63°37' E 009°20'1312.3
2016-Jun-15 19:30N 63°36' E 009°48'1414.8
2016-Jun-15 18:34N 63°29' E 010°14'5 4.7
2016-Jun-15 17:31N 63°27' E 010°24'0 0.0
2016-Jun-15 16:31N 63°27' E 010°24'0 0.0
2016-Jun-15 15:31N 63°27' E 010°24'0 0.0
2016-Jun-15 14:31N 63°27' E 010°24'0 0.0
2016-Jun-15 13:31N 63°27' E 010°24'0 0.0
2016-Jun-15 12:31N 63°27' E 010°24'0 0.0
2016-Jun-15 11:31N 63°27' E 010°24'0 0.0
2016-Jun-15 10:31N 63°27' E 010°24'0 0.0
2016-Jun-15 09:31N 63°27' E 010°24'0 0.0
2016-Jun-15 08:31N 63°27' E 010°24'0 0.0
2016-Jun-15 07:33N 63°27' E 010°24'5 5.5
2016-Jun-15 06:33N 63°28' E 010°12'1212.5
2016-Jun-15 05:34N 63°35' E 009°49'1010.0
2016-Jun-15 04:33N 63°35' E 009°27'  

Dump ship's entire track history